createdAt,value
2023-04-29T00:02:45.070Z,0.01
2023-04-29T01:30:06.566Z,0.02
2023-04-29T01:34:29.785Z,0.01
2023-04-29T01:51:48.738Z,0.02
2023-04-29T02:03:58.676Z,0.01
2023-04-29T02:21:21.445Z,0.02
2023-04-29T02:23:56.546Z,0.01
2023-04-29T02:36:28.417Z,0.07
2023-04-29T02:43:28.300Z,0.02
2023-04-29T02:58:24.627Z,0.03
2023-04-29T03:05:19.316Z,0.04
2023-04-29T03:15:03.716Z,0.06
2023-04-29T03:17:41.552Z,0.1
2023-04-29T03:20:05.203Z,0.14
2023-04-29T03:22:14.926Z,0.19
2023-04-29T03:24:10.906Z,0.26
2023-04-29T03:26:54.730Z,0.38
2023-04-29T03:29:24.493Z,0.54
2023-04-29T03:31:40.258Z,0.73
2023-04-29T03:33:42.204Z,1.05
2023-04-29T03:36:32.038Z,1.55
2023-04-29T03:39:07.870Z,2.44
2023-04-29T03:41:29.954Z,3.48
2023-04-29T03:43:37.595Z,4.75
2023-04-29T03:46:33.504Z,7.5
2023-04-29T03:49:15.557Z,11.21
2023-04-29T03:51:43.718Z,16.72
2023-04-29T03:53:57.794Z,21.46
2023-04-29T03:55:58.119Z,29.15
2023-04-29T03:58:46.365Z,38.51
2023-04-29T04:01:20.487Z,52.46
2023-04-29T04:03:40.829Z,65.5
2023-04-29T04:05:47.289Z,77.14
2023-04-29T04:08:41.279Z,91.88
2023-04-29T04:11:21.581Z,99.6
2023-04-29T04:13:48.053Z,128.8
2023-04-29T04:16:00.538Z,149.72
2023-04-29T04:17:58.986Z,166.8
2023-04-29T04:20:45.531Z,182.8
2023-04-29T04:23:18.031Z,208.1
2023-04-29T04:25:36.667Z,231.1
2023-04-29T04:27:41.319Z,235.7
2023-04-29T04:30:33.951Z,278.3
2023-04-29T04:33:12.532Z,343
2023-04-29T04:35:36.707Z,388.8
2023-04-29T04:37:47.426Z,401.2
2023-04-29T04:39:44.398Z,417.7
2023-04-29T04:42:28.847Z,458.7
2023-04-29T04:44:59.769Z,476.8
2023-04-29T04:47:16.591Z,497.1
2023-04-29T04:49:19.418Z,514.7
2023-04-29T04:52:10.337Z,551.8
2023-04-29T04:54:47.304Z,609.9
2023-04-29T04:57:10.249Z,720.6
2023-04-29T04:59:19.445Z,834.5
2023-04-29T05:02:16.484Z,844.4
2023-04-29T05:04:59.421Z,960.3
2023-04-29T05:07:28.374Z,1200.9
2023-04-29T05:09:43.593Z,1252.1
2023-04-29T05:11:44.573Z,1285.1
2023-04-29T05:14:33.616Z,1597.4
2023-04-29T05:17:08.885Z,1377.2
2023-04-29T05:19:30.042Z,1306.8
2023-04-29T05:21:37.264Z,1258.5
2023-04-29T05:24:32.579Z,1310.4
2023-04-29T05:27:13.413Z,1392
2023-04-29T05:29:40.583Z,1288.9
2023-04-29T05:31:53.608Z,1427.8
2023-04-29T05:33:52.945Z,1342
2023-04-29T05:36:40.160Z,1756
2023-04-29T05:39:13.381Z,1891
2023-04-29T05:41:32.780Z,2007
2023-04-29T05:43:38.114Z,2053
2023-04-29T05:46:31.257Z,2038
2023-04-29T05:49:10.579Z,1881
2023-04-29T05:51:35.910Z,1889
2023-04-29T05:53:47.344Z,2100
2023-04-29T05:55:45.078Z,2282
2023-04-29T05:58:30.448Z,2403
2023-04-29T06:00:43.100Z,2768
2023-04-29T06:02:50.965Z,2616
2023-04-29T06:05:28.840Z,2640
2023-04-29T06:08:00.945Z,2551
2023-04-29T06:10:19.601Z,2772
2023-04-29T06:12:24.136Z,3188
2023-04-29T06:15:16.773Z,3006
2023-04-29T06:17:55.177Z,3127
2023-04-29T06:20:19.804Z,3016
2023-04-29T06:22:30.723Z,3412
2023-04-29T06:24:27.645Z,3029
2023-04-29T06:27:12.400Z,3238
2023-04-29T06:29:43.162Z,3269
2023-04-29T06:32:00.132Z,3193
2023-04-29T06:34:03.016Z,3763
2023-04-29T06:36:53.778Z,3918
2023-04-29T06:39:30.787Z,3932
2023-04-29T06:41:53.715Z,4046
2023-04-29T06:44:03.009Z,4072
2023-04-29T06:46:59.711Z,4158
2023-04-29T06:49:42.662Z,3834
2023-04-29T06:52:11.595Z,4062
2023-04-29T06:54:26.611Z,3481
2023-04-29T06:56:27.907Z,3114
2023-04-29T06:59:16.834Z,2726
2023-04-29T07:01:51.834Z,2094
2023-04-29T07:04:13.194Z,2055
2023-04-29T07:06:20.436Z,1926
2023-04-29T07:09:15.449Z,1900
2023-04-29T07:11:56.667Z,1904
2023-04-29T07:14:24.049Z,1845
2023-04-29T07:16:37.479Z,1828
2023-04-29T07:18:37.074Z,1806
2023-04-29T07:21:24.393Z,1369.6
2023-04-29T07:23:57.738Z,1328.6
2023-04-29T07:26:17.135Z,1555.8
2023-04-29T07:28:22.714Z,1438.7
2023-04-29T07:31:16.082Z,1248.6
2023-04-29T07:33:55.418Z,1442.5
2023-04-29T07:36:20.999Z,1282.2
2023-04-29T07:38:32.620Z,1440.6
2023-04-29T07:40:30.189Z,1747
2023-04-29T07:43:15.829Z,2289
2023-04-29T07:45:47.464Z,2206
2023-04-29T07:48:05.137Z,2013
2023-04-29T07:50:09.028Z,2051
2023-04-29T07:53:00.749Z,1812
2023-04-29T07:55:38.473Z,1779
2023-04-29T07:58:02.287Z,1802
2023-04-29T08:00:11.826Z,1451.5
2023-04-29T08:02:07.783Z,1614
2023-04-29T08:04:52.117Z,1699
2023-04-29T08:07:21.615Z,1740
2023-04-29T08:09:37.623Z,1546.8
2023-04-29T08:11:39.564Z,1769
2023-04-29T08:14:29.581Z,1950
2023-04-29T08:17:05.612Z,2101
2023-04-29T08:19:27.695Z,2211
2023-04-29T08:21:35.982Z,2253
2023-04-29T08:24:32.119Z,2184
2023-04-29T08:27:14.221Z,2191
2023-04-29T08:29:42.303Z,1841
2023-04-29T08:31:56.635Z,1776
2023-04-29T08:33:56.942Z,1764
2023-04-29T08:36:45.085Z,1633.2
2023-04-29T08:39:19.412Z,1406
2023-04-29T08:41:39.816Z,1112.9
2023-04-29T08:43:46.113Z,1489.2
2023-04-29T08:49:20.920Z,1556.4
2023-04-29T08:51:46.852Z,1654
2023-04-29T08:53:59.220Z,1537.2
2023-04-29T08:55:57.771Z,1839
2023-04-29T08:58:44.196Z,2213
2023-04-29T09:01:16.628Z,2394
2023-04-29T09:03:35.580Z,2522
2023-04-29T09:05:39.854Z,2590
2023-04-29T09:08:32.342Z,2574
2023-04-29T09:11:11.159Z,2721
2023-04-29T09:13:35.883Z,2831
2023-04-29T09:15:46.703Z,2730
2023-04-29T09:17:43.723Z,2702
2023-04-29T09:20:28.518Z,2712
2023-04-29T09:22:59.331Z,2698
2023-04-29T09:25:16.044Z,2702
2023-04-29T09:27:18.981Z,2619
2023-04-29T09:30:09.797Z,2533
2023-04-29T09:32:46.571Z,2498
2023-04-29T09:35:09.831Z,2455
2023-04-29T09:37:18.783Z,2496
2023-04-29T09:40:15.748Z,2497
2023-04-29T09:42:58.689Z,2634
2023-04-29T09:45:27.866Z,2680
2023-04-29T09:47:43.044Z,2259
2023-04-29T09:49:44.455Z,1944
2023-04-29T09:52:33.780Z,1403.5
2023-04-29T09:55:09.050Z,1073.9
2023-04-29T09:57:30.243Z,1061.4
2023-04-29T09:59:37.736Z,1175.6
2023-04-29T10:02:32.892Z,1193.2
2023-04-29T10:05:14.117Z,1000
2023-04-29T10:07:41.566Z,961.6
2023-04-29T10:09:54.964Z,1174.7
2023-04-29T10:11:54.474Z,1263.3
2023-04-29T10:14:41.864Z,1470
2023-04-29T10:17:15.174Z,1621.7
2023-04-29T10:19:34.662Z,1733
2023-04-29T10:21:40.364Z,1758
2023-04-29T10:24:33.989Z,2087
2023-04-29T10:27:13.550Z,2238
2023-04-29T10:29:39.243Z,2887
2023-04-29T10:31:51.006Z,3201
2023-04-29T10:33:48.347Z,3744
2023-04-29T10:36:34.011Z,4312
2023-04-29T10:39:06.034Z,5127
2023-04-29T10:41:23.846Z,5212
2023-04-29T10:43:27.610Z,4936
2023-04-29T10:46:19.531Z,5024
2023-04-29T10:48:57.426Z,6118
2023-04-29T10:51:21.363Z,5680
2023-04-29T10:53:31.480Z,6412
2023-04-29T10:55:27.660Z,5100
2023-04-29T10:58:11.658Z,4503
2023-04-29T11:00:41.629Z,3956
2023-04-29T11:02:57.889Z,3411
2023-04-29T11:05:00.089Z,3322
2023-04-29T11:07:50.127Z,2730
2023-04-29T11:10:26.423Z,2551
2023-04-29T11:12:48.574Z,2675
2023-04-29T11:14:56.678Z,2535
2023-04-29T11:17:52.893Z,2125
2023-04-29T11:20:35.105Z,2122
2023-04-29T11:23:03.297Z,2299
2023-04-29T11:25:17.027Z,2970
2023-04-29T11:27:17.326Z,2794
2023-04-29T11:30:05.606Z,2831
2023-04-29T11:32:39.909Z,2711
2023-04-29T11:35:00.437Z,2526
2023-04-29T11:37:06.730Z,2392
2023-04-29T11:40:01.037Z,2576
2023-04-29T11:42:41.519Z,3031
2023-04-29T11:45:08.154Z,3461
2023-04-29T11:47:20.701Z,3814
2023-04-29T11:49:19.287Z,3635
2023-04-29T11:52:05.820Z,2929
2023-04-29T11:54:38.340Z,2517
2023-04-29T11:56:56.869Z,2282
2023-04-29T11:59:01.594Z,2112
2023-04-29T12:01:54.325Z,1870
2023-04-29T12:04:33.138Z,1989
2023-04-29T12:06:57.734Z,2344
2023-04-29T12:09:08.512Z,2764
2023-04-29T12:11:05.289Z,2453
2023-04-29T12:13:50.113Z,2138
2023-04-29T12:16:20.654Z,1660
2023-04-29T12:18:37.515Z,1541.7
2023-04-29T12:20:40.689Z,1437.4
2023-04-29T12:23:31.746Z,1231.3
2023-04-29T12:26:08.858Z,1270.4
2023-04-29T12:28:31.817Z,1381.1
2023-04-29T12:30:41.038Z,1334.4
2023-04-29T12:33:38.240Z,1110.7
2023-04-29T12:36:21.272Z,1095.6
2023-04-29T12:38:50.482Z,1216
2023-04-29T12:41:05.665Z,1420.8
2023-04-29T12:43:07.122Z,1724
2023-04-29T12:45:56.414Z,1832
2023-04-29T12:48:33.145Z,2323
2023-04-29T12:50:53.200Z,2657
2023-04-29T12:53:00.815Z,3079
2023-04-29T12:55:56.332Z,3376
2023-04-29T12:58:37.810Z,3324
2023-04-29T13:01:05.261Z,3336
2023-04-29T13:03:21.438Z,3330
2023-04-29T13:05:18.389Z,3144
2023-04-29T13:08:05.434Z,3422
2023-04-29T13:10:39.080Z,3485
2023-04-29T13:12:58.658Z,3457
2023-04-29T13:15:04.253Z,3488
2023-04-29T13:17:58.132Z,2822
2023-04-29T13:20:41.304Z,2474
2023-04-29T13:23:03.476Z,2260
2023-04-29T13:25:15.122Z,1612.1
2023-04-29T13:27:12.850Z,1502
2023-04-29T13:29:58.571Z,1322.8
2023-04-29T13:32:42.226Z,1270.7
2023-04-29T13:34:48.078Z,1152
2023-04-29T13:36:51.864Z,1224.3
2023-04-29T13:39:45.665Z,1484.1
2023-04-29T13:42:25.979Z,1793
2023-04-29T13:44:52.110Z,2006
2023-04-29T13:46:55.196Z,2290
2023-04-29T13:52:10.523Z,2853
2023-04-29T13:56:53.233Z,3502
2023-04-29T14:01:43.997Z,3850
2023-04-29T14:03:48.240Z,3626
2023-04-29T14:06:10.366Z,3285
2023-04-29T14:08:18.519Z,3183
2023-04-29T14:11:14.556Z,3124
2023-04-29T14:13:56.856Z,2708
2023-04-29T14:16:25.256Z,2505
2023-04-29T14:18:39.423Z,2776
2023-04-29T14:20:39.860Z,2610
2023-04-29T14:23:28.194Z,2492
2023-04-29T14:26:17.079Z,2353
2023-04-29T14:28:22.715Z,2263
2023-04-29T14:30:29.178Z,2184
2023-04-29T14:33:23.433Z,2114
2023-04-29T14:36:03.819Z,2055
2023-04-29T14:38:30.438Z,1975
2023-04-29T14:40:43.004Z,1691
2023-04-29T14:42:41.478Z,1528.3
2023-04-29T14:45:28.072Z,1553.9
2023-04-29T14:48:00.730Z,1747
2023-04-29T14:50:18.844Z,1998
2023-04-29T14:52:23.602Z,2204
2023-04-29T14:55:16.216Z,2475
2023-04-29T14:57:54.907Z,2615
2023-04-29T15:00:19.543Z,2599
2023-04-29T15:02:30.354Z,2549
2023-04-29T15:04:27.285Z,2449
2023-04-29T15:07:11.933Z,2200
2023-04-29T15:09:42.874Z,1989
2023-04-29T15:11:59.783Z,1340.8
2023-04-29T15:14:02.615Z,1178.2
2023-04-29T15:16:53.682Z,1316.4
2023-04-29T15:19:30.617Z,1262
2023-04-29T15:21:53.523Z,1147.5
2023-04-29T15:24:02.968Z,942
2023-04-29T15:26:59.818Z,862.7
2023-04-29T15:29:42.814Z,716.4
2023-04-29T15:32:11.828Z,652.1
2023-04-29T15:34:26.991Z,657.9
2023-04-29T15:36:28.215Z,648.9
2023-04-29T15:39:17.143Z,609.9
2023-04-29T15:41:51.968Z,611.5
2023-04-29T15:44:13.161Z,660.1
2023-04-29T15:46:20.308Z,609.6
2023-04-29T15:49:15.592Z,559.3
2023-04-29T15:51:56.843Z,575.5
2023-04-29T15:54:24.067Z,592
2023-04-29T15:56:37.326Z,607.6
2023-04-29T15:58:36.502Z,623.5
2023-04-29T16:01:23.798Z,641.4
2023-04-29T16:03:56.963Z,664
2023-04-29T16:06:16.394Z,639
2023-04-29T16:08:21.773Z,577.4
2023-04-29T16:11:15.092Z,529.1
2023-04-29T16:13:54.627Z,538.7
2023-04-29T16:16:20.142Z,542.4
2023-04-29T16:18:31.659Z,511.2
2023-04-29T16:20:29.423Z,512.9
2023-04-29T16:23:15.065Z,554.5
2023-04-29T16:25:27.743Z,580.4
2023-04-29T16:27:26.427Z,618.7
2023-04-29T16:30:13.001Z,622.4
2023-04-29T16:32:45.463Z,601.1
2023-04-29T16:35:04.117Z,606
2023-04-29T16:37:08.838Z,622
2023-04-29T16:40:01.533Z,642.7
2023-04-29T16:42:40.354Z,662
2023-04-29T16:45:05.132Z,641.4
2023-04-29T16:47:16.153Z,652.8
2023-04-29T16:49:13.042Z,682.8
2023-04-29T16:51:57.835Z,656.9
2023-04-29T16:54:28.718Z,603.2
2023-04-29T16:56:45.708Z,549.1
2023-04-29T17:01:39.641Z,456
2023-04-29T17:04:16.941Z,454.5
2023-04-29T17:06:40.099Z,440.9
2023-04-29T17:08:50.846Z,438.4
2023-04-29T17:11:46.416Z,426.7
2023-04-29T17:14:29.694Z,359.8
2023-04-29T17:16:58.909Z,289.4
2023-04-29T17:19:14.138Z,304.8
2023-04-29T17:21:15.548Z,295.1
2023-04-29T17:24:04.407Z,255.9
2023-04-29T17:26:39.767Z,258.9
2023-04-29T17:29:01.296Z,240.5
2023-04-29T17:31:08.802Z,225.6
2023-04-29T17:34:04.166Z,211.2
2023-04-29T17:36:45.782Z,197.8
2023-04-29T17:39:13.298Z,188.6
2023-04-29T17:41:26.752Z,185.3
2023-04-29T17:43:26.365Z,180.8
2023-04-29T17:46:13.877Z,175
2023-04-29T17:48:47.234Z,167.3
2023-04-29T17:51:06.669Z,161.8
2023-04-29T17:53:12.353Z,156.68
2023-04-29T17:56:05.864Z,150.12
2023-04-29T17:58:45.772Z,147.36
2023-04-29T18:01:11.110Z,129.04
2023-04-29T18:03:22.783Z,125.92
2023-04-29T18:05:20.424Z,120.72
2023-04-29T18:08:06.204Z,112.92
2023-04-29T18:10:38.048Z,107.04
2023-04-29T18:12:55.745Z,106.52
2023-04-29T18:14:59.407Z,104.48
2023-04-29T18:17:51.316Z,98.28
2023-04-29T18:20:29.115Z,87.68
2023-04-29T18:22:52.982Z,76.06
2023-04-29T18:25:03.030Z,63.66
2023-04-29T18:26:58.957Z,55.24
2023-04-29T18:29:42.743Z,45.42
2023-04-29T18:32:12.931Z,38.45
2023-04-29T18:34:28.889Z,33.73
2023-04-29T18:36:31.137Z,28.09
2023-04-29T18:39:20.904Z,22.94
2023-04-29T18:41:56.915Z,17.86
2023-04-29T18:44:18.904Z,15
2023-04-29T18:46:27.810Z,12.31
2023-04-29T18:49:23.237Z,8.74
2023-04-29T18:52:05.316Z,6.26
2023-04-29T18:54:33.378Z,4.75
2023-04-29T18:56:47.650Z,3.6
2023-04-29T18:58:47.903Z,2.8
2023-04-29T19:01:36.059Z,1.99
2023-04-29T19:04:10.449Z,1.51
2023-04-29T19:06:30.186Z,1.15
2023-04-29T19:08:36.404Z,0.91
2023-04-29T19:11:30.748Z,0.61
2023-04-29T19:14:11.281Z,0.41
2023-04-29T19:16:37.601Z,0.3
2023-04-29T19:18:49.763Z,0.23
2023-04-29T19:20:48.387Z,0.18
2023-04-29T19:23:34.745Z,0.12
2023-04-29T19:26:07.174Z,0.1
2023-04-29T19:28:25.760Z,0.08
2023-04-29T19:30:30.419Z,0.07
2023-04-29T19:36:01.524Z,0.06
2023-04-29T19:38:26.246Z,0.05
2023-04-29T19:50:05.660Z,0.04
2023-04-29T21:03:50.963Z,0.09
2023-04-29T21:06:08.712Z,0.1
2023-04-29T21:08:12.371Z,0.04
2023-04-29T21:18:15.772Z,0.03
2023-04-29T21:29:43.239Z,0.04
2023-04-29T22:04:42.545Z,0.03
2023-04-29T23:13:08.381Z,0.04
2023-04-29T23:15:29.441Z,0.03
2023-04-29T23:17:36.786Z,0.04
2023-04-29T23:23:12.670Z,0.03
2023-04-29T23:32:39.807Z,0.04
2023-04-29T23:35:13.333Z,0.03
